sensor_id;sensor_type;location;lat;lon;timestamp;P1;durP1;ratioP1;P2;durP2;ratioP2
59418;SDS011;45224;50.904;6.038;2022-07-01T00:00:30;12.83;;;6.73;;
59418;SDS011;45224;50.904;6.038;2022-07-01T00:02:01;11.80;;;6.20;;
59418;SDS011;45224;50.904;6.038;2022-07-01T00:03:32;13.27;;;6.45;;
59418;SDS011;45224;50.904;6.038;2022-07-01T00:05:04;10.73;;;6.22;;
59418;SDS011;45224;50.904;6.038;2022-07-01T00:06:50;10.30;;;6.50;;
59418;SDS011;45224;50.904;6.038;2022-07-01T00:09:51;12.80;;;6.80;;
59418;SDS011;45224;50.904;6.038;2022-07-01T00:11:22;13.30;;;7.03;;
59418;SDS011;45224;50.904;6.038;2022-07-01T00:12:52;14.43;;;6.70;;
59418;SDS011;45224;50.904;6.038;2022-07-01T00:14:23;11.03;;;6.57;;
59418;SDS011;45224;50.904;6.038;2022-07-01T00:15:53;14.07;;;6.60;;
59418;SDS011;45224;50.904;6.038;2022-07-01T00:17:24;10.03;;;6.00;;
59418;SDS011;45224;50.904;6.038;2022-07-01T00:18:54;10.33;;;5.97;;
59418;SDS011;45224;50.904;6.038;2022-07-01T00:20:24;11.97;;;5.90;;
59418;SDS011;45224;50.904;6.038;2022-07-01T00:21:55;12.55;;;6.60;;
59418;SDS011;45224;50.904;6.038;2022-07-01T00:23:26;11.43;;;6.27;;
59418;SDS011;45224;50.904;6.038;2022-07-01T00:24:57;11.93;;;6.05;;
59418;SDS011;45224;50.904;6.038;2022-07-01T00:26:27;11.40;;;5.87;;
59418;SDS011;45224;50.904;6.038;2022-07-01T00:27:58;9.27;;;5.10;;
59418;SDS011;45224;50.904;6.038;2022-07-01T00:29:28;9.25;;;5.68;;
59418;SDS011;45224;50.904;6.038;2022-07-01T00:30:59;7.70;;;4.57;;
59418;SDS011;45224;50.904;6.038;2022-07-01T00:32:29;8.17;;;4.67;;
59418;SDS011;45224;50.904;6.038;2022-07-01T00:34:00;8.67;;;4.40;;
59418;SDS011;45224;50.904;6.038;2022-07-01T00:35:30;7.43;;;4.60;;
59418;SDS011;45224;50.904;6.038;2022-07-01T00:37:01;7.73;;;4.10;;
59418;SDS011;45224;50.904;6.038;2022-07-01T00:38:31;8.55;;;4.40;;
59418;SDS011;45224;50.904;6.038;2022-07-01T00:40:02;10.13;;;4.38;;
59418;SDS011;45224;50.904;6.038;2022-07-01T00:41:32;6.65;;;3.83;;
59418;SDS011;45224;50.904;6.038;2022-07-01T00:43:03;10.13;;;4.13;;
59418;SDS011;45224;50.904;6.038;2022-07-01T00:46:05;6.00;;;3.40;;
59418;SDS011;45224;50.904;6.038;2022-07-01T00:47:36;9.57;;;3.63;;
59418;SDS011;45224;50.904;6.038;2022-07-01T00:49:07;5.53;;;3.47;;
59418;SDS011;45224;50.904;6.038;2022-07-01T00:50:37;6.00;;;3.80;;
59418;SDS011;45224;50.904;6.038;2022-07-01T00:52:09;5.90;;;3.30;;
59418;SDS011;45224;50.904;6.038;2022-07-01T00:53:40;6.35;;;3.63;;
59418;SDS011;45224;50.904;6.038;2022-07-01T00:55:11;5.77;;;3.47;;
59418;SDS011;45224;50.904;6.038;2022-07-01T00:56:42;8.43;;;3.22;;
59418;SDS011;45224;50.904;6.038;2022-07-01T00:58:13;5.80;;;3.27;;
59418;SDS011;45224;50.904;6.038;2022-07-01T00:59:43;4.40;;;2.60;;
59418;SDS011;45224;50.904;6.038;2022-07-01T01:01:14;4.20;;;3.10;;
59418;SDS011;45224;50.904;6.038;2022-07-01T01:02:44;6.10;;;2.60;;
59418;SDS011;45224;50.904;6.038;2022-07-01T01:04:15;4.47;;;3.20;;
59418;SDS011;45224;50.904;6.038;2022-07-01T01:05:45;5.90;;;3.13;;
59418;SDS011;45224;50.904;6.038;2022-07-01T01:07:16;5.90;;;3.08;;
59418;SDS011;45224;50.904;6.038;2022-07-01T01:08:46;3.70;;;2.67;;
59418;SDS011;45224;50.904;6.038;2022-07-01T01:10:19;4.88;;;2.72;;
59418;SDS011;45224;50.904;6.038;2022-07-01T01:11:49;4.85;;;2.75;;
59418;SDS011;45224;50.904;6.038;2022-07-01T01:13:20;4.82;;;2.60;;
59418;SDS011;45224;50.904;6.038;2022-07-01T01:14:51;5.05;;;3.20;;
59418;SDS011;45224;50.904;6.038;2022-07-01T01:16:22;4.75;;;2.67;;
59418;SDS011;45224;50.904;6.038;2022-07-01T01:17:53;4.70;;;3.17;;
59418;SDS011;45224;50.904;6.038;2022-07-01T01:19:23;5.27;;;3.03;;
59418;SDS011;45224;50.904;6.038;2022-07-01T01:20:54;3.20;;;2.60;;
59418;SDS011;45224;50.904;6.038;2022-07-01T01:22:25;5.63;;;2.70;;
59418;SDS011;45224;50.904;6.038;2022-07-01T01:23:56;4.83;;;2.60;;
59418;SDS011;45224;50.904;6.038;2022-07-01T01:25:27;3.90;;;2.55;;
59418;SDS011;45224;50.904;6.038;2022-07-01T01:26:57;4.05;;;2.55;;
59418;SDS011;45224;50.904;6.038;2022-07-01T01:28:28;4.00;;;2.60;;
59418;SDS011;45224;50.904;6.038;2022-07-01T01:29:58;6.13;;;2.63;;
59418;SDS011;45224;50.904;6.038;2022-07-01T01:31:30;4.87;;;2.93;;
59418;SDS011;45224;50.904;6.038;2022-07-01T01:33:01;4.35;;;2.90;;
59418;SDS011;45224;50.904;6.038;2022-07-01T01:34:32;4.72;;;2.67;;
59418;SDS011;45224;50.904;6.038;2022-07-01T01:36:04;4.35;;;2.58;;
59418;SDS011;45224;50.904;6.038;2022-07-01T01:37:36;6.75;;;2.95;;
59418;SDS011;45224;50.904;6.038;2022-07-01T01:39:06;10.13;;;3.50;;
59418;SDS011;45224;50.904;6.038;2022-07-01T01:40:46;3.97;;;2.90;;
59418;SDS011;45224;50.904;6.038;2022-07-01T01:42:16;5.27;;;3.07;;
59418;SDS011;45224;50.904;6.038;2022-07-01T01:43:46;8.03;;;3.20;;
59418;SDS011;45224;50.904;6.038;2022-07-01T01:45:17;5.20;;;2.83;;
59418;SDS011;45224;50.904;6.038;2022-07-01T01:46:48;7.85;;;3.40;;
59418;SDS011;45224;50.904;6.038;2022-07-01T01:48:18;5.17;;;3.17;;
59418;SDS011;45224;50.904;6.038;2022-07-01T01:49:48;5.50;;;3.23;;
59418;SDS011;45224;50.904;6.038;2022-07-01T01:51:19;5.23;;;2.77;;
59418;SDS011;45224;50.904;6.038;2022-07-01T01:52:49;4.63;;;2.77;;
59418;SDS011;45224;50.904;6.038;2022-07-01T01:54:20;6.13;;;2.63;;
59418;SDS011;45224;50.904;6.038;2022-07-01T01:55:50;6.27;;;3.37;;
59418;SDS011;45224;50.904;6.038;2022-07-01T01:57:21;10.33;;;3.43;;
59418;SDS011;45224;50.904;6.038;2022-07-01T01:58:51;7.50;;;3.47;;
59418;SDS011;45224;50.904;6.038;2022-07-01T02:00:22;5.90;;;2.83;;
59418;SDS011;45224;50.904;6.038;2022-07-01T02:01:52;7.37;;;3.83;;
59418;SDS011;45224;50.904;6.038;2022-07-01T02:03:23;8.17;;;3.40;;
59418;SDS011;45224;50.904;6.038;2022-07-01T02:04:53;4.90;;;3.40;;
59418;SDS011;45224;50.904;6.038;2022-07-01T02:06:24;4.53;;;2.77;;
59418;SDS011;45224;50.904;6.038;2022-07-01T02:07:54;6.97;;;3.30;;
59418;SDS011;45224;50.904;6.038;2022-07-01T02:09:25;9.13;;;3.30;;
59418;SDS011;45224;50.904;6.038;2022-07-01T02:10:55;7.65;;;3.42;;
59418;SDS011;45224;50.904;6.038;2022-07-01T02:12:26;8.63;;;3.43;;
59418;SDS011;45224;50.904;6.038;2022-07-01T02:13:56;6.10;;;3.43;;
59418;SDS011;45224;50.904;6.038;2022-07-01T02:15:27;5.50;;;3.43;;
59418;SDS011;45224;50.904;6.038;2022-07-01T02:16:57;8.37;;;3.53;;
59418;SDS011;45224;50.904;6.038;2022-07-01T02:18:28;5.00;;;3.60;;
59418;SDS011;45224;50.904;6.038;2022-07-01T02:19:58;6.57;;;3.73;;
59418;SDS011;45224;50.904;6.038;2022-07-01T02:21:28;6.13;;;3.77;;
59418;SDS011;45224;50.904;6.038;2022-07-01T02:22:59;7.23;;;3.53;;
59418;SDS011;45224;50.904;6.038;2022-07-01T02:24:30;6.78;;;3.05;;
59418;SDS011;45224;50.904;6.038;2022-07-01T02:26:00;8.38;;;4.30;;
59418;SDS011;45224;50.904;6.038;2022-07-01T02:27:31;6.05;;;3.45;;
59418;SDS011;45224;50.904;6.038;2022-07-01T02:29:01;9.67;;;3.93;;
59418;SDS011;45224;50.904;6.038;2022-07-01T02:30:32;5.23;;;3.70;;
59418;SDS011;45224;50.904;6.038;2022-07-01T02:32:06;6.57;;;3.28;;
59418;SDS011;45224;50.904;6.038;2022-07-01T02:33:36;8.55;;;4.18;;
59418;SDS011;45224;50.904;6.038;2022-07-01T02:35:07;10.37;;;4.00;;
59418;SDS011;45224;50.904;6.038;2022-07-01T02:36:37;5.37;;;3.80;;
59418;SDS011;45224;50.904;6.038;2022-07-01T02:38:08;6.37;;;3.73;;
59418;SDS011;45224;50.904;6.038;2022-07-01T02:39:38;7.30;;;3.53;;
59418;SDS011;45224;50.904;6.038;2022-07-01T02:41:09;9.50;;;4.53;;
59418;SDS011;45224;50.904;6.038;2022-07-01T02:42:40;7.43;;;4.00;;
59418;SDS011;45224;50.904;6.038;2022-07-01T02:44:10;7.13;;;3.92;;
59418;SDS011;45224;50.904;6.038;2022-07-01T02:45:41;8.77;;;4.27;;
59418;SDS011;45224;50.904;6.038;2022-07-01T02:47:12;9.40;;;4.40;;
59418;SDS011;45224;50.904;6.038;2022-07-01T02:48:42;9.00;;;4.47;;
59418;SDS011;45224;50.904;6.038;2022-07-01T02:50:13;10.43;;;4.10;;
59418;SDS011;45224;50.904;6.038;2022-07-01T02:51:44;6.80;;;4.15;;
59418;SDS011;45224;50.904;6.038;2022-07-01T02:53:14;8.87;;;3.97;;
59418;SDS011;45224;50.904;6.038;2022-07-01T02:54:45;10.10;;;4.37;;
59418;SDS011;45224;50.904;6.038;2022-07-01T02:56:15;5.73;;;4.10;;
59418;SDS011;45224;50.904;6.038;2022-07-01T02:57:46;8.73;;;3.95;;
59418;SDS011;45224;50.904;6.038;2022-07-01T02:59:19;7.25;;;3.83;;
59418;SDS011;45224;50.904;6.038;2022-07-01T03:00:50;7.10;;;4.30;;
59418;SDS011;45224;50.904;6.038;2022-07-01T03:02:22;6.05;;;4.05;;
59418;SDS011;45224;50.904;6.038;2022-07-01T03:03:54;8.25;;;3.95;;
59418;SDS011;45224;50.904;6.038;2022-07-01T03:05:24;8.93;;;4.30;;
59418;SDS011;45224;50.904;6.038;2022-07-01T03:06:55;10.30;;;4.50;;
59418;SDS011;45224;50.904;6.038;2022-07-01T03:08:25;12.68;;;4.88;;
59418;SDS011;45224;50.904;6.038;2022-07-01T03:09:56;6.70;;;4.20;;
59418;SDS011;45224;50.904;6.038;2022-07-01T03:11:26;6.53;;;3.67;;
59418;SDS011;45224;50.904;6.038;2022-07-01T03:12:57;9.13;;;4.13;;
59418;SDS011;45224;50.904;6.038;2022-07-01T03:14:29;7.35;;;4.25;;
59418;SDS011;45224;50.904;6.038;2022-07-01T03:15:59;10.43;;;3.80;;
59418;SDS011;45224;50.904;6.038;2022-07-01T03:17:31;5.23;;;4.00;;
59418;SDS011;45224;50.904;6.038;2022-07-01T03:19:03;9.07;;;4.32;;
59418;SDS011;45224;50.904;6.038;2022-07-01T03:20:35;6.22;;;4.20;;
59418;SDS011;45224;50.904;6.038;2022-07-01T03:22:06;9.33;;;4.17;;
59418;SDS011;45224;50.904;6.038;2022-07-01T03:23:36;8.10;;;4.67;;
59418;SDS011;45224;50.904;6.038;2022-07-01T03:25:07;7.37;;;4.13;;
59418;SDS011;45224;50.904;6.038;2022-07-01T03:28:08;8.03;;;4.43;;
59418;SDS011;45224;50.904;6.038;2022-07-01T03:29:39;9.07;;;4.13;;
59418;SDS011;45224;50.904;6.038;2022-07-01T03:31:09;6.53;;;4.47;;
59418;SDS011;45224;50.904;6.038;2022-07-01T03:32:40;9.63;;;4.47;;
59418;SDS011;45224;50.904;6.038;2022-07-01T03:34:11;11.02;;;5.13;;
59418;SDS011;45224;50.904;6.038;2022-07-01T03:35:41;7.30;;;4.60;;
59418;SDS011;45224;50.904;6.038;2022-07-01T03:37:15;7.85;;;4.68;;
59418;SDS011;45224;50.904;6.038;2022-07-01T03:38:47;8.23;;;4.30;;
59418;SDS011;45224;50.904;6.038;2022-07-01T03:40:17;11.03;;;4.43;;
59418;SDS011;45224;50.904;6.038;2022-07-01T03:41:48;6.73;;;4.00;;
59418;SDS011;45224;50.904;6.038;2022-07-01T03:43:19;8.80;;;4.13;;
59418;SDS011;45224;50.904;6.038;2022-07-01T03:44:49;11.13;;;5.40;;
59418;SDS011;45224;50.904;6.038;2022-07-01T03:46:20;10.30;;;4.50;;
59418;SDS011;45224;50.904;6.038;2022-07-01T03:47:50;7.60;;;4.60;;
59418;SDS011;45224;50.904;6.038;2022-07-01T03:49:21;7.35;;;4.07;;
59418;SDS011;45224;50.904;6.038;2022-07-01T03:50:52;10.38;;;4.45;;
59418;SDS011;45224;50.904;6.038;2022-07-01T03:52:23;8.57;;;4.20;;
59418;SDS011;45224;50.904;6.038;2022-07-01T03:53:53;7.20;;;4.07;;
59418;SDS011;45224;50.904;6.038;2022-07-01T03:55:42;9.10;;;4.10;;
59418;SDS011;45224;50.904;6.038;2022-07-01T03:57:12;5.43;;;3.90;;
59418;SDS011;45224;50.904;6.038;2022-07-01T03:58:43;7.73;;;3.83;;
59418;SDS011;45224;50.904;6.038;2022-07-01T04:00:19;13.87;;;4.07;;
59418;SDS011;45224;50.904;6.038;2022-07-01T04:01:50;10.48;;;4.95;;
59418;SDS011;45224;50.904;6.038;2022-07-01T04:03:20;9.67;;;4.53;;
59418;SDS011;45224;50.904;6.038;2022-07-01T04:04:51;7.72;;;3.90;;
59418;SDS011;45224;50.904;6.038;2022-07-01T04:06:21;9.97;;;4.03;;
59418;SDS011;45224;50.904;6.038;2022-07-01T04:07:52;6.43;;;3.80;;
59418;SDS011;45224;50.904;6.038;2022-07-01T04:09:22;11.53;;;4.40;;
59418;SDS011;45224;50.904;6.038;2022-07-01T04:10:54;6.07;;;4.45;;
59418;SDS011;45224;50.904;6.038;2022-07-01T04:12:26;7.07;;;4.25;;
59418;SDS011;45224;50.904;6.038;2022-07-01T04:13:57;8.87;;;4.70;;
59418;SDS011;45224;50.904;6.038;2022-07-01T04:15:28;8.70;;;4.85;;
59418;SDS011;45224;50.904;6.038;2022-07-01T04:16:58;8.60;;;4.40;;
59418;SDS011;45224;50.904;6.038;2022-07-01T04:18:29;7.30;;;4.33;;
59418;SDS011;45224;50.904;6.038;2022-07-01T04:19:59;8.77;;;4.13;;
59418;SDS011;45224;50.904;6.038;2022-07-01T04:21:30;8.53;;;4.17;;
59418;SDS011;45224;50.904;6.038;2022-07-01T04:23:19;6.70;;;4.20;;
59418;SDS011;45224;50.904;6.038;2022-07-01T04:24:50;6.67;;;3.80;;
59418;SDS011;45224;50.904;6.038;2022-07-01T04:26:20;10.00;;;4.43;;
59418;SDS011;45224;50.904;6.038;2022-07-01T04:27:51;7.97;;;4.37;;
59418;SDS011;45224;50.904;6.038;2022-07-01T04:29:21;6.00;;;3.87;;
59418;SDS011;45224;50.904;6.038;2022-07-01T04:30:52;8.53;;;4.70;;
59418;SDS011;45224;50.904;6.038;2022-07-01T04:32:22;7.67;;;4.17;;
59418;SDS011;45224;50.904;6.038;2022-07-01T04:33:53;7.38;;;4.00;;
59418;SDS011;45224;50.904;6.038;2022-07-01T04:36:55;8.70;;;4.43;;
59418;SDS011;45224;50.904;6.038;2022-07-01T04:38:26;7.30;;;4.10;;
59418;SDS011;45224;50.904;6.038;2022-07-01T04:39:56;8.23;;;4.33;;
59418;SDS011;45224;50.904;6.038;2022-07-01T04:41:27;9.03;;;4.77;;
59418;SDS011;45224;50.904;6.038;2022-07-01T04:43:16;11.82;;;4.43;;
59418;SDS011;45224;50.904;6.038;2022-07-01T04:44:48;7.88;;;3.95;;
59418;SDS011;45224;50.904;6.038;2022-07-01T04:46:18;9.63;;;4.10;;
59418;SDS011;45224;50.904;6.038;2022-07-01T04:47:49;7.73;;;3.83;;
59418;SDS011;45224;50.904;6.038;2022-07-01T04:49:20;6.57;;;4.05;;
59418;SDS011;45224;50.904;6.038;2022-07-01T04:50:50;12.02;;;3.92;;
59418;SDS011;45224;50.904;6.038;2022-07-01T04:52:20;8.10;;;3.80;;
59418;SDS011;45224;50.904;6.038;2022-07-01T04:53:51;9.30;;;4.13;;
59418;SDS011;45224;50.904;6.038;2022-07-01T04:55:21;11.73;;;4.03;;
59418;SDS011;45224;50.904;6.038;2022-07-01T04:56:52;6.50;;;3.93;;
59418;SDS011;45224;50.904;6.038;2022-07-01T04:58:23;6.57;;;3.80;;
59418;SDS011;45224;50.904;6.038;2022-07-01T04:59:54;9.52;;;4.30;;
59418;SDS011;45224;50.904;6.038;2022-07-01T05:01:25;8.87;;;3.80;;
59418;SDS011;45224;50.904;6.038;2022-07-01T05:02:55;10.90;;;4.57;;
59418;SDS011;45224;50.904;6.038;2022-07-01T05:04:26;7.47;;;3.73;;
59418;SDS011;45224;50.904;6.038;2022-07-01T05:05:58;6.82;;;4.03;;
59418;SDS011;45224;50.904;6.038;2022-07-01T05:07:28;6.97;;;3.40;;
59418;SDS011;45224;50.904;6.038;2022-07-01T05:08:59;11.70;;;3.93;;
59418;SDS011;45224;50.904;6.038;2022-07-01T05:10:30;7.45;;;4.00;;
59418;SDS011;45224;50.904;6.038;2022-07-01T05:12:00;7.17;;;3.73;;
59418;SDS011;45224;50.904;6.038;2022-07-01T05:13:31;8.40;;;4.13;;
59418;SDS011;45224;50.904;6.038;2022-07-01T05:15:01;7.17;;;3.40;;
59418;SDS011;45224;50.904;6.038;2022-07-01T05:16:32;7.20;;;3.60;;
59418;SDS011;45224;50.904;6.038;2022-07-01T05:18:03;7.88;;;4.30;;
59418;SDS011;45224;50.904;6.038;2022-07-01T05:19:52;6.10;;;3.30;;
59418;SDS011;45224;50.904;6.038;2022-07-01T05:21:41;6.97;;;3.70;;
59418;SDS011;45224;50.904;6.038;2022-07-01T05:23:26;7.25;;;3.70;;
59418;SDS011;45224;50.904;6.038;2022-07-01T05:24:56;9.83;;;3.90;;
59418;SDS011;45224;50.904;6.038;2022-07-01T05:26:27;8.80;;;4.13;;
59418;SDS011;45224;50.904;6.038;2022-07-01T05:27:57;8.17;;;3.47;;
59418;SDS011;45224;50.904;6.038;2022-07-01T05:29:28;11.97;;;4.00;;
59418;SDS011;45224;50.904;6.038;2022-07-01T05:30:59;7.47;;;3.85;;
59418;SDS011;45224;50.904;6.038;2022-07-01T05:32:29;8.67;;;3.90;;
59418;SDS011;45224;50.904;6.038;2022-07-01T05:34:00;7.17;;;3.57;;
59418;SDS011;45224;50.904;6.038;2022-07-01T05:35:30;7.38;;;3.90;;
59418;SDS011;45224;50.904;6.038;2022-07-01T05:37:01;6.90;;;3.70;;
59418;SDS011;45224;50.904;6.038;2022-07-01T05:38:32;9.13;;;3.73;;
59418;SDS011;45224;50.904;6.038;2022-07-01T05:40:02;9.07;;;3.80;;
59418;SDS011;45224;50.904;6.038;2022-07-01T05:41:33;9.18;;;3.80;;
59418;SDS011;45224;50.904;6.038;2022-07-01T05:43:04;11.27;;;4.93;;
59418;SDS011;45224;50.904;6.038;2022-07-01T05:44:35;6.73;;;3.60;;
59418;SDS011;45224;50.904;6.038;2022-07-01T05:46:05;6.43;;;3.90;;
59418;SDS011;45224;50.904;6.038;2022-07-01T05:47:35;6.20;;;3.50;;
59418;SDS011;45224;50.904;6.038;2022-07-01T05:49:06;6.73;;;3.23;;
59418;SDS011;45224;50.904;6.038;2022-07-01T05:50:36;13.13;;;3.60;;
59418;SDS011;45224;50.904;6.038;2022-07-01T05:52:07;7.97;;;3.80;;
59418;SDS011;45224;50.904;6.038;2022-07-01T05:53:37;7.28;;;3.75;;
59418;SDS011;45224;50.904;6.038;2022-07-01T05:55:08;8.85;;;3.95;;
59418;SDS011;45224;50.904;6.038;2022-07-01T05:56:38;7.53;;;3.70;;
59418;SDS011;45224;50.904;6.038;2022-07-01T05:58:12;9.70;;;4.10;;
59418;SDS011;45224;50.904;6.038;2022-07-01T05:59:43;10.43;;;3.95;;
59418;SDS011;45224;50.904;6.038;2022-07-01T06:01:13;12.97;;;4.57;;
59418;SDS011;45224;50.904;6.038;2022-07-01T06:02:44;8.23;;;3.78;;
59418;SDS011;45224;50.904;6.038;2022-07-01T06:04:15;9.35;;;4.05;;
59418;SDS011;45224;50.904;6.038;2022-07-01T06:05:45;6.53;;;3.70;;
59418;SDS011;45224;50.904;6.038;2022-07-01T06:07:15;8.80;;;4.30;;
59418;SDS011;45224;50.904;6.038;2022-07-01T06:08:46;7.83;;;4.40;;
59418;SDS011;45224;50.904;6.038;2022-07-01T06:10:16;10.13;;;4.22;;
59418;SDS011;45224;50.904;6.038;2022-07-01T06:11:47;7.97;;;3.50;;
59418;SDS011;45224;50.904;6.038;2022-07-01T06:13:17;16.30;;;4.27;;
59418;SDS011;45224;50.904;6.038;2022-07-01T06:14:48;6.63;;;4.10;;
59418;SDS011;45224;50.904;6.038;2022-07-01T06:16:19;10.70;;;4.38;;
59418;SDS011;45224;50.904;6.038;2022-07-01T06:17:49;10.30;;;4.20;;
59418;SDS011;45224;50.904;6.038;2022-07-01T06:19:21;8.77;;;4.13;;
59418;SDS011;45224;50.904;6.038;2022-07-01T06:20:51;7.23;;;3.63;;
59418;SDS011;45224;50.904;6.038;2022-07-01T06:22:21;9.13;;;4.47;;
59418;SDS011;45224;50.904;6.038;2022-07-01T06:23:52;8.43;;;4.10;;
59418;SDS011;45224;50.904;6.038;2022-07-01T06:25:22;10.80;;;4.37;;
59418;SDS011;45224;50.904;6.038;2022-07-01T06:26:53;9.43;;;4.53;;
59418;SDS011;45224;50.904;6.038;2022-07-01T06:28:23;9.17;;;4.00;;
59418;SDS011;45224;50.904;6.038;2022-07-01T06:29:59;7.72;;;3.88;;
59418;SDS011;45224;50.904;6.038;2022-07-01T06:31:29;7.57;;;3.60;;
59418;SDS011;45224;50.904;6.038;2022-07-01T06:33:00;8.97;;;3.27;;
59418;SDS011;45224;50.904;6.038;2022-07-01T06:34:30;8.87;;;4.73;;
59418;SDS011;45224;50.904;6.038;2022-07-01T06:36:01;9.53;;;4.30;;
59418;SDS011;45224;50.904;6.038;2022-07-01T06:37:31;10.33;;;3.87;;
59418;SDS011;45224;50.904;6.038;2022-07-01T06:39:04;9.38;;;4.20;;
59418;SDS011;45224;50.904;6.038;2022-07-01T06:40:34;12.13;;;4.23;;
59418;SDS011;45224;50.904;6.038;2022-07-01T06:42:05;8.80;;;4.20;;
59418;SDS011;45224;50.904;6.038;2022-07-01T06:43:36;9.32;;;4.30;;
59418;SDS011;45224;50.904;6.038;2022-07-01T06:45:06;6.68;;;3.67;;
59418;SDS011;45224;50.904;6.038;2022-07-01T06:46:37;9.48;;;3.90;;
59418;SDS011;45224;50.904;6.038;2022-07-01T06:48:07;9.33;;;4.67;;
59418;SDS011;45224;50.904;6.038;2022-07-01T06:49:38;10.50;;;4.00;;
59418;SDS011;45224;50.904;6.038;2022-07-01T06:52:40;10.23;;;3.73;;
59418;SDS011;45224;50.904;6.038;2022-07-01T06:54:10;8.03;;;3.70;;
59418;SDS011;45224;50.904;6.038;2022-07-01T06:55:41;9.07;;;3.97;;
59418;SDS011;45224;50.904;6.038;2022-07-01T06:57:11;11.87;;;3.43;;
59418;SDS011;45224;50.904;6.038;2022-07-01T06:58:42;9.82;;;3.40;;
59418;SDS011;45224;50.904;6.038;2022-07-01T07:00:13;9.25;;;3.97;;
59418;SDS011;45224;50.904;6.038;2022-07-01T07:01:43;10.77;;;3.40;;
59418;SDS011;45224;50.904;6.038;2022-07-01T07:03:14;12.97;;;3.13;;
59418;SDS011;45224;50.904;6.038;2022-07-01T07:04:44;10.18;;;3.70;;
59418;SDS011;45224;50.904;6.038;2022-07-01T07:06:16;7.82;;;3.45;;
59418;SDS011;45224;50.904;6.038;2022-07-01T07:07:46;7.82;;;3.47;;
59418;SDS011;45224;50.904;6.038;2022-07-01T07:09:17;8.83;;;3.70;;
59418;SDS011;45224;50.904;6.038;2022-07-01T07:10:48;6.95;;;3.85;;
59418;SDS011;45224;50.904;6.038;2022-07-01T07:12:18;13.47;;;4.30;;
59418;SDS011;45224;50.904;6.038;2022-07-01T07:13:49;12.30;;;4.70;;
59418;SDS011;45224;50.904;6.038;2022-07-01T07:15:19;8.57;;;3.93;;
59418;SDS011;45224;50.904;6.038;2022-07-01T07:16:50;12.63;;;4.90;;
59418;SDS011;45224;50.904;6.038;2022-07-01T07:18:21;11.63;;;4.47;;
59418;SDS011;45224;50.904;6.038;2022-07-01T07:19:51;12.25;;;3.90;;
59418;SDS011;45224;50.904;6.038;2022-07-01T07:21:23;9.45;;;4.30;;
59418;SDS011;45224;50.904;6.038;2022-07-01T07:22:54;14.23;;;4.30;;
59418;SDS011;45224;50.904;6.038;2022-07-01T07:24:24;11.17;;;4.63;;
59418;SDS011;45224;50.904;6.038;2022-07-01T07:25:55;8.87;;;4.07;;
59418;SDS011;45224;50.904;6.038;2022-07-01T07:27:26;10.18;;;4.43;;
59418;SDS011;45224;50.904;6.038;2022-07-01T07:28:56;12.27;;;4.00;;
59418;SDS011;45224;50.904;6.038;2022-07-01T07:30:26;7.83;;;3.70;;
59418;SDS011;45224;50.904;6.038;2022-07-01T07:31:57;8.93;;;3.65;;
59418;SDS011;45224;50.904;6.038;2022-07-01T07:33:27;9.20;;;4.27;;
59418;SDS011;45224;50.904;6.038;2022-07-01T07:34:58;8.52;;;3.60;;
59418;SDS011;45224;50.904;6.038;2022-07-01T07:36:28;11.87;;;3.70;;
59418;SDS011;45224;50.904;6.038;2022-07-01T07:37:59;6.78;;;3.92;;
59418;SDS011;45224;50.904;6.038;2022-07-01T07:39:29;12.50;;;4.10;;
59418;SDS011;45224;50.904;6.038;2022-07-01T07:41:00;15.20;;;4.55;;
59418;SDS011;45224;50.904;6.038;2022-07-01T07:42:31;11.05;;;3.83;;
59418;SDS011;45224;50.904;6.038;2022-07-01T07:44:01;6.50;;;3.13;;
59418;SDS011;45224;50.904;6.038;2022-07-01T07:45:31;9.03;;;3.87;;
59418;SDS011;45224;50.904;6.038;2022-07-01T07:47:02;8.33;;;3.57;;
59418;SDS011;45224;50.904;6.038;2022-07-01T07:48:32;10.85;;;3.60;;
59418;SDS011;45224;50.904;6.038;2022-07-01T07:50:03;9.25;;;3.67;;
59418;SDS011;45224;50.904;6.038;2022-07-01T07:51:35;8.88;;;3.00;;
59418;SDS011;45224;50.904;6.038;2022-07-01T07:53:05;6.83;;;2.93;;
59418;SDS011;45224;50.904;6.038;2022-07-01T07:54:36;8.80;;;3.03;;
59418;SDS011;45224;50.904;6.038;2022-07-01T07:56:07;7.88;;;3.30;;
59418;SDS011;45224;50.904;6.038;2022-07-01T07:57:38;7.43;;;2.92;;
59418;SDS011;45224;50.904;6.038;2022-07-01T07:59:10;6.60;;;2.33;;
59418;SDS011;45224;50.904;6.038;2022-07-01T08:00:41;6.63;;;2.33;;
59418;SDS011;45224;50.904;6.038;2022-07-01T08:02:11;8.17;;;2.33;;
59418;SDS011;45224;50.904;6.038;2022-07-01T08:03:42;7.38;;;2.03;;
59418;SDS011;45224;50.904;6.038;2022-07-01T08:05:13;5.72;;;1.90;;
59418;SDS011;45224;50.904;6.038;2022-07-01T08:06:43;10.65;;;1.60;;
59418;SDS011;45224;50.904;6.038;2022-07-01T08:08:14;3.73;;;1.37;;
59418;SDS011;45224;50.904;6.038;2022-07-01T08:09:44;3.42;;;1.50;;
59418;SDS011;45224;50.904;6.038;2022-07-01T08:11:19;6.20;;;1.17;;
59418;SDS011;45224;50.904;6.038;2022-07-01T08:12:49;1.60;;;0.80;;
59418;SDS011;45224;50.904;6.038;2022-07-01T08:14:21;7.82;;;1.00;;
59418;SDS011;45224;50.904;6.038;2022-07-01T08:15:51;2.25;;;0.90;;
59418;SDS011;45224;50.904;6.038;2022-07-01T08:17:21;4.53;;;1.27;;
59418;SDS011;45224;50.904;6.038;2022-07-01T08:18:52;5.72;;;1.40;;
59418;SDS011;45224;50.904;6.038;2022-07-01T08:20:22;5.30;;;1.20;;
59418;SDS011;45224;50.904;6.038;2022-07-01T08:21:53;1.95;;;1.02;;
59418;SDS011;45224;50.904;6.038;2022-07-01T08:23:24;2.80;;;1.20;;
59418;SDS011;45224;50.904;6.038;2022-07-01T08:24:54;5.80;;;1.00;;
59418;SDS011;45224;50.904;6.038;2022-07-01T08:26:24;3.45;;;1.23;;
59418;SDS011;45224;50.904;6.038;2022-07-01T08:27:55;6.80;;;1.30;;
59418;SDS011;45224;50.904;6.038;2022-07-01T08:29:25;4.65;;;1.05;;
59418;SDS011;45224;50.904;6.038;2022-07-01T08:30:56;2.72;;;1.10;;
59418;SDS011;45224;50.904;6.038;2022-07-01T08:32:26;5.75;;;1.13;;
59418;SDS011;45224;50.904;6.038;2022-07-01T08:33:58;4.43;;;1.13;;
59418;SDS011;45224;50.904;6.038;2022-07-01T08:35:29;3.90;;;1.08;;
59418;SDS011;45224;50.904;6.038;2022-07-01T08:36:59;3.80;;;1.35;;
59418;SDS011;45224;50.904;6.038;2022-07-01T08:38:31;4.75;;;1.33;;
59418;SDS011;45224;50.904;6.038;2022-07-01T08:40:01;5.70;;;1.60;;
59418;SDS011;45224;50.904;6.038;2022-07-01T08:41:33;2.95;;;1.20;;
59418;SDS011;45224;50.904;6.038;2022-07-01T08:43:05;4.15;;;1.05;;
59418;SDS011;45224;50.904;6.038;2022-07-01T08:44:36;4.40;;;1.52;;
59418;SDS011;45224;50.904;6.038;2022-07-01T08:46:07;4.30;;;1.15;;
59418;SDS011;45224;50.904;6.038;2022-07-01T08:47:50;3.35;;;1.10;;
59418;SDS011;45224;50.904;6.038;2022-07-01T08:49:22;2.58;;;0.85;;
59418;SDS011;45224;50.904;6.038;2022-07-01T08:50:53;1.65;;;0.60;;
59418;SDS011;45224;50.904;6.038;2022-07-01T08:52:23;1.38;;;0.60;;
59418;SDS011;45224;50.904;6.038;2022-07-01T08:55:24;2.75;;;0.80;;
59418;SDS011;45224;50.904;6.038;2022-07-01T08:56:55;5.72;;;1.13;;
59418;SDS011;45224;50.904;6.038;2022-07-01T09:00:04;2.10;;;0.90;;
59418;SDS011;45224;50.904;6.038;2022-07-01T09:01:35;4.25;;;0.90;;
59418;SDS011;45224;50.904;6.038;2022-07-01T09:04:37;3.83;;;1.10;;
59418;SDS011;45224;50.904;6.038;2022-07-01T09:06:11;2.88;;;1.00;;
59418;SDS011;45224;50.904;6.038;2022-07-01T09:07:47;3.97;;;0.90;;
59418;SDS011;45224;50.904;6.038;2022-07-01T09:09:19;2.90;;;0.82;;
59418;SDS011;45224;50.904;6.038;2022-07-01T09:10:50;2.65;;;0.90;;
59418;SDS011;45224;50.904;6.038;2022-07-01T09:14:05;1.42;;;0.63;;
59418;SDS011;45224;50.904;6.038;2022-07-01T09:15:37;3.03;;;0.80;;
59418;SDS011;45224;50.904;6.038;2022-07-01T09:17:10;3.60;;;0.68;;
59418;SDS011;45224;50.904;6.038;2022-07-01T09:19:01;2.53;;;0.80;;
59418;SDS011;45224;50.904;6.038;2022-07-01T09:20:34;2.28;;;0.60;;
59418;SDS011;45224;50.904;6.038;2022-07-01T09:22:06;2.33;;;0.60;;